sensor_id;sensor_type;location;lat;lon;timestamp;P1;durP1;ratioP1;P2;durP2;ratioP2
36211;SDS011;22247;48.586;13.492;2023-03-14T00:01:27;2.50;;;0.75;;
36211;SDS011;22247;48.586;13.492;2023-03-14T00:03:54;5.45;;;0.88;;
36211;SDS011;22247;48.586;13.492;2023-03-14T00:06:20;2.63;;;1.02;;
36211;SDS011;22247;48.586;13.492;2023-03-14T00:08:46;7.57;;;2.00;;
36211;SDS011;22247;48.586;13.492;2023-03-14T00:11:19;4.20;;;2.53;;
36211;SDS011;22247;48.586;13.492;2023-03-14T00:13:47;6.47;;;2.45;;
36211;SDS011;22247;48.586;13.492;2023-03-14T00:16:15;4.07;;;2.00;;
36211;SDS011;22247;48.586;13.492;2023-03-14T00:18:41;5.20;;;2.00;;
36211;SDS011;22247;48.586;13.492;2023-03-14T00:21:08;3.38;;;1.73;;
36211;SDS011;22247;48.586;13.492;2023-03-14T00:23:38;3.55;;;1.75;;
36211;SDS011;22247;48.586;13.492;2023-03-14T00:26:06;5.30;;;1.80;;
36211;SDS011;22247;48.586;13.492;2023-03-14T00:28:36;4.03;;;1.40;;
36211;SDS011;22247;48.586;13.492;2023-03-14T00:31:03;3.70;;;1.42;;
36211;SDS011;22247;48.586;13.492;2023-03-14T00:33:29;3.65;;;1.30;;
36211;SDS011;22247;48.586;13.492;2023-03-14T00:35:56;4.47;;;1.38;;
36211;SDS011;22247;48.586;13.492;2023-03-14T00:38:23;4.07;;;1.00;;
36211;SDS011;22247;48.586;13.492;2023-03-14T00:40:50;2.47;;;1.10;;
36211;SDS011;22247;48.586;13.492;2023-03-14T00:43:21;3.88;;;1.20;;
36211;SDS011;22247;48.586;13.492;2023-03-14T00:45:51;4.05;;;0.80;;
36211;SDS011;22247;48.586;13.492;2023-03-14T00:48:19;2.95;;;1.10;;
36211;SDS011;22247;48.586;13.492;2023-03-14T00:50:46;2.97;;;0.90;;
36211;SDS011;22247;48.586;13.492;2023-03-14T00:53:15;2.20;;;1.00;;
36211;SDS011;22247;48.586;13.492;2023-03-14T00:55:41;2.50;;;0.80;;
36211;SDS011;22247;48.586;13.492;2023-03-14T00:58:07;2.80;;;1.10;;
36211;SDS011;22247;48.586;13.492;2023-03-14T01:00:35;2.88;;;1.10;;
36211;SDS011;22247;48.586;13.492;2023-03-14T01:03:01;3.33;;;1.23;;
36211;SDS011;22247;48.586;13.492;2023-03-14T01:05:29;2.42;;;1.25;;
36211;SDS011;22247;48.586;13.492;2023-03-14T01:07:55;3.25;;;1.55;;
36211;SDS011;22247;48.586;13.492;2023-03-14T01:10:24;3.95;;;1.13;;
36211;SDS011;22247;48.586;13.492;2023-03-14T01:12:50;6.63;;;1.75;;
36211;SDS011;22247;48.586;13.492;2023-03-14T01:15:16;3.97;;;1.00;;
36211;SDS011;22247;48.586;13.492;2023-03-14T01:17:42;2.95;;;1.45;;
36211;SDS011;22247;48.586;13.492;2023-03-14T01:20:09;3.15;;;1.02;;
36211;SDS011;22247;48.586;13.492;2023-03-14T01:22:39;3.10;;;1.00;;
36211;SDS011;22247;48.586;13.492;2023-03-14T01:25:08;2.90;;;1.20;;
36211;SDS011;22247;48.586;13.492;2023-03-14T01:27:35;4.28;;;1.50;;
36211;SDS011;22247;48.586;13.492;2023-03-14T01:30:04;3.08;;;1.42;;
36211;SDS011;22247;48.586;13.492;2023-03-14T01:32:30;4.97;;;1.33;;
36211;SDS011;22247;48.586;13.492;2023-03-14T01:34:59;1.85;;;1.00;;
36211;SDS011;22247;48.586;13.492;2023-03-14T01:37:24;6.03;;;1.20;;
36211;SDS011;22247;48.586;13.492;2023-03-14T01:39:50;4.57;;;1.00;;
36211;SDS011;22247;48.586;13.492;2023-03-14T01:42:20;4.88;;;1.58;;
36211;SDS011;22247;48.586;13.492;2023-03-14T01:44:50;4.43;;;1.65;;
36211;SDS011;22247;48.586;13.492;2023-03-14T01:47:21;4.25;;;1.55;;
36211;SDS011;22247;48.586;13.492;2023-03-14T01:49:49;4.68;;;1.50;;
36211;SDS011;22247;48.586;13.492;2023-03-14T01:54:51;1.95;;;1.10;;
36211;SDS011;22247;48.586;13.492;2023-03-14T01:57:21;3.88;;;1.10;;
36211;SDS011;22247;48.586;13.492;2023-03-14T02:00:09;3.92;;;1.08;;
36211;SDS011;22247;48.586;13.492;2023-03-14T02:02:38;4.57;;;1.63;;
36211;SDS011;22247;48.586;13.492;2023-03-14T02:05:07;4.90;;;1.60;;
36211;SDS011;22247;48.586;13.492;2023-03-14T02:07:35;3.83;;;1.75;;
36211;SDS011;22247;48.586;13.492;2023-03-14T02:10:12;3.40;;;1.75;;
36211;SDS011;22247;48.586;13.492;2023-03-14T02:15:11;3.10;;;1.45;;
36211;SDS011;22247;48.586;13.492;2023-03-14T02:17:37;9.55;;;2.50;;
36211;SDS011;22247;48.586;13.492;2023-03-14T02:22:44;5.85;;;2.10;;
36211;SDS011;22247;48.586;13.492;2023-03-14T02:27:55;4.95;;;1.70;;
36211;SDS011;22247;48.586;13.492;2023-03-14T02:30:23;6.32;;;1.25;;
36211;SDS011;22247;48.586;13.492;2023-03-14T02:32:55;4.85;;;2.35;;
36211;SDS011;22247;48.586;13.492;2023-03-14T02:35:27;4.60;;;2.58;;
36211;SDS011;22247;48.586;13.492;2023-03-14T02:40:20;6.32;;;3.25;;
36211;SDS011;22247;48.586;13.492;2023-03-14T02:42:46;5.43;;;3.03;;
36211;SDS011;22247;48.586;13.492;2023-03-14T02:47:44;3.95;;;2.20;;
36211;SDS011;22247;48.586;13.492;2023-03-14T02:50:20;3.58;;;1.50;;
36211;SDS011;22247;48.586;13.492;2023-03-14T02:52:48;4.33;;;2.10;;
36211;SDS011;22247;48.586;13.492;2023-03-14T02:55:14;4.55;;;2.35;;
36211;SDS011;22247;48.586;13.492;2023-03-14T02:57:40;3.42;;;1.63;;
36211;SDS011;22247;48.586;13.492;2023-03-14T03:00:06;6.40;;;2.53;;
36211;SDS011;22247;48.586;13.492;2023-03-14T03:02:35;3.47;;;1.73;;
36211;SDS011;22247;48.586;13.492;2023-03-14T03:05:01;4.22;;;1.98;;
36211;SDS011;22247;48.586;13.492;2023-03-14T03:07:29;4.78;;;1.50;;
36211;SDS011;22247;48.586;13.492;2023-03-14T03:09:57;4.68;;;1.63;;
36211;SDS011;22247;48.586;13.492;2023-03-14T03:12:23;3.25;;;1.70;;
36211;SDS011;22247;48.586;13.492;2023-03-14T03:14:54;3.47;;;1.30;;
36211;SDS011;22247;48.586;13.492;2023-03-14T03:17:20;4.72;;;1.67;;
36211;SDS011;22247;48.586;13.492;2023-03-14T03:19:46;4.43;;;1.95;;
36211;SDS011;22247;48.586;13.492;2023-03-14T03:22:16;4.50;;;1.85;;
36211;SDS011;22247;48.586;13.492;2023-03-14T03:24:42;4.18;;;1.23;;
36211;SDS011;22247;48.586;13.492;2023-03-14T03:27:09;3.33;;;1.85;;
36211;SDS011;22247;48.586;13.492;2023-03-14T03:29:35;3.35;;;1.88;;
36211;SDS011;22247;48.586;13.492;2023-03-14T03:32:01;6.57;;;1.85;;
36211;SDS011;22247;48.586;13.492;2023-03-14T03:34:27;6.07;;;1.92;;
36211;SDS011;22247;48.586;13.492;2023-03-14T03:36:55;5.45;;;1.98;;
36211;SDS011;22247;48.586;13.492;2023-03-14T03:39:21;8.27;;;2.72;;
36211;SDS011;22247;48.586;13.492;2023-03-14T03:41:47;4.95;;;1.88;;
36211;SDS011;22247;48.586;13.492;2023-03-14T03:44:13;5.10;;;2.25;;
36211;SDS011;22247;48.586;13.492;2023-03-14T03:46:42;5.45;;;2.00;;
36211;SDS011;22247;48.586;13.492;2023-03-14T03:49:07;6.22;;;1.88;;
36211;SDS011;22247;48.586;13.492;2023-03-14T03:51:33;3.45;;;2.13;;
36211;SDS011;22247;48.586;13.492;2023-03-14T03:53:59;7.35;;;2.65;;
36211;SDS011;22247;48.586;13.492;2023-03-14T03:56:28;4.03;;;2.00;;
36211;SDS011;22247;48.586;13.492;2023-03-14T03:58:53;4.28;;;1.80;;
36211;SDS011;22247;48.586;13.492;2023-03-14T04:01:19;3.35;;;1.50;;
36211;SDS011;22247;48.586;13.492;2023-03-14T04:03:48;3.35;;;2.13;;
36211;SDS011;22247;48.586;13.492;2023-03-14T04:06:16;4.57;;;1.83;;
36211;SDS011;22247;48.586;13.492;2023-03-14T04:08:44;4.50;;;2.00;;
36211;SDS011;22247;48.586;13.492;2023-03-14T04:11:12;5.38;;;2.38;;
36211;SDS011;22247;48.586;13.492;2023-03-14T04:13:40;6.47;;;2.40;;
36211;SDS011;22247;48.586;13.492;2023-03-14T04:16:11;5.47;;;2.65;;
36211;SDS011;22247;48.586;13.492;2023-03-14T04:18:41;7.60;;;2.63;;
36211;SDS011;22247;48.586;13.492;2023-03-14T04:21:07;5.38;;;2.58;;
36211;SDS011;22247;48.586;13.492;2023-03-14T04:23:33;6.97;;;3.70;;
36211;SDS011;22247;48.586;13.492;2023-03-14T04:25:59;6.93;;;2.75;;
36211;SDS011;22247;48.586;13.492;2023-03-14T04:28:27;7.78;;;2.92;;
36211;SDS011;22247;48.586;13.492;2023-03-14T04:30:56;6.75;;;2.92;;
36211;SDS011;22247;48.586;13.492;2023-03-14T04:33:24;5.95;;;3.25;;
36211;SDS011;22247;48.586;13.492;2023-03-14T04:35:52;4.68;;;3.10;;
36211;SDS011;22247;48.586;13.492;2023-03-14T04:38:19;4.38;;;3.45;;
36211;SDS011;22247;48.586;13.492;2023-03-14T04:40:45;6.10;;;3.33;;
36211;SDS011;22247;48.586;13.492;2023-03-14T04:43:11;5.68;;;3.20;;
36211;SDS011;22247;48.586;13.492;2023-03-14T04:45:41;7.88;;;3.45;;
36211;SDS011;22247;48.586;13.492;2023-03-14T04:48:07;7.45;;;3.05;;
36211;SDS011;22247;48.586;13.492;2023-03-14T04:50:34;6.50;;;2.70;;
36211;SDS011;22247;48.586;13.492;2023-03-14T04:53:03;7.50;;;3.90;;
36211;SDS011;22247;48.586;13.492;2023-03-14T04:55:29;7.18;;;3.53;;
36211;SDS011;22247;48.586;13.492;2023-03-14T04:57:57;7.18;;;3.15;;
36211;SDS011;22247;48.586;13.492;2023-03-14T05:00:23;10.07;;;4.03;;
36211;SDS011;22247;48.586;13.492;2023-03-14T05:02:49;5.10;;;3.17;;
36211;SDS011;22247;48.586;13.492;2023-03-14T05:05:15;7.88;;;3.58;;
36211;SDS011;22247;48.586;13.492;2023-03-14T05:07:43;7.55;;;4.20;;
36211;SDS011;22247;48.586;13.492;2023-03-14T05:10:09;7.78;;;4.95;;
36211;SDS011;22247;48.586;13.492;2023-03-14T05:12:35;9.10;;;3.70;;
36211;SDS011;22247;48.586;13.492;2023-03-14T05:15:01;4.82;;;3.03;;
36211;SDS011;22247;48.586;13.492;2023-03-14T05:17:29;6.97;;;3.58;;
36211;SDS011;22247;48.586;13.492;2023-03-14T05:19:57;8.88;;;3.05;;
36211;SDS011;22247;48.586;13.492;2023-03-14T05:22:22;9.80;;;3.15;;
36211;SDS011;22247;48.586;13.492;2023-03-14T05:24:48;5.13;;;3.08;;
36211;SDS011;22247;48.586;13.492;2023-03-14T05:27:17;8.27;;;2.88;;
36211;SDS011;22247;48.586;13.492;2023-03-14T05:29:42;7.88;;;3.45;;
36211;SDS011;22247;48.586;13.492;2023-03-14T05:32:11;13.90;;;3.72;;
36211;SDS011;22247;48.586;13.492;2023-03-14T05:34:36;6.30;;;3.17;;
36211;SDS011;22247;48.586;13.492;2023-03-14T05:37:02;4.65;;;2.70;;
36211;SDS011;22247;48.586;13.492;2023-03-14T05:39:28;7.90;;;3.30;;
36211;SDS011;22247;48.586;13.492;2023-03-14T05:41:54;4.78;;;3.10;;
36211;SDS011;22247;48.586;13.492;2023-03-14T05:44:21;5.47;;;3.42;;
36211;SDS011;22247;48.586;13.492;2023-03-14T05:46:51;9.05;;;3.53;;
36211;SDS011;22247;48.586;13.492;2023-03-14T05:49:17;5.22;;;3.25;;
36211;SDS011;22247;48.586;13.492;2023-03-14T05:51:43;6.13;;;3.55;;
36211;SDS011;22247;48.586;13.492;2023-03-14T05:54:09;7.45;;;4.15;;
36211;SDS011;22247;48.586;13.492;2023-03-14T05:56:35;7.18;;;3.35;;
36211;SDS011;22247;48.586;13.492;2023-03-14T05:59:01;6.13;;;3.42;;
36211;SDS011;22247;48.586;13.492;2023-03-14T06:01:30;7.88;;;3.00;;
36211;SDS011;22247;48.586;13.492;2023-03-14T06:03:56;7.38;;;3.65;;
36211;SDS011;22247;48.586;13.492;2023-03-14T06:06:22;8.35;;;4.38;;
36211;SDS011;22247;48.586;13.492;2023-03-14T06:08:48;7.03;;;3.78;;
36211;SDS011;22247;48.586;13.492;2023-03-14T06:11:14;5.85;;;3.83;;
36211;SDS011;22247;48.586;13.492;2023-03-14T06:13:43;5.93;;;4.03;;
36211;SDS011;22247;48.586;13.492;2023-03-14T06:16:11;7.80;;;4.25;;
36211;SDS011;22247;48.586;13.492;2023-03-14T06:18:37;6.43;;;3.45;;
36211;SDS011;22247;48.586;13.492;2023-03-14T06:21:03;7.18;;;3.90;;
36211;SDS011;22247;48.586;13.492;2023-03-14T06:23:32;7.65;;;4.03;;
36211;SDS011;22247;48.586;13.492;2023-03-14T06:25:58;4.95;;;3.55;;
36211;SDS011;22247;48.586;13.492;2023-03-14T06:28:27;7.97;;;4.47;;
36211;SDS011;22247;48.586;13.492;2023-03-14T06:30:55;8.73;;;4.28;;
36211;SDS011;22247;48.586;13.492;2023-03-14T06:33:21;9.55;;;3.78;;
36211;SDS011;22247;48.586;13.492;2023-03-14T06:35:47;9.32;;;3.95;;
36211;SDS011;22247;48.586;13.492;2023-03-14T06:38:13;11.80;;;4.53;;
36211;SDS011;22247;48.586;13.492;2023-03-14T06:40:42;8.45;;;4.03;;
36211;SDS011;22247;48.586;13.492;2023-03-14T06:43:07;7.13;;;3.90;;
36211;SDS011;22247;48.586;13.492;2023-03-14T06:45:33;7.40;;;4.70;;
36211;SDS011;22247;48.586;13.492;2023-03-14T06:48:01;11.82;;;5.93;;
36211;SDS011;22247;48.586;13.492;2023-03-14T06:50:27;8.93;;;4.72;;
36211;SDS011;22247;48.586;13.492;2023-03-14T06:52:57;10.32;;;5.70;;
36211;SDS011;22247;48.586;13.492;2023-03-14T06:55:23;12.40;;;6.22;;
36211;SDS011;22247;48.586;13.492;2023-03-14T06:57:51;15.20;;;7.03;;
36211;SDS011;22247;48.586;13.492;2023-03-14T07:00:19;10.98;;;6.70;;
36211;SDS011;22247;48.586;13.492;2023-03-14T07:02:47;12.70;;;5.78;;
36211;SDS011;22247;48.586;13.492;2023-03-14T07:05:13;7.75;;;5.43;;
36211;SDS011;22247;48.586;13.492;2023-03-14T07:07:39;8.00;;;3.22;;
36211;SDS011;22247;48.586;13.492;2023-03-14T07:10:05;2.15;;;1.45;;
36211;SDS011;22247;48.586;13.492;2023-03-14T07:12:34;2.83;;;0.98;;
36211;SDS011;22247;48.586;13.492;2023-03-14T07:15:00;2.17;;;0.90;;
36211;SDS011;22247;48.586;13.492;2023-03-14T07:17:25;2.33;;;0.70;;
36211;SDS011;22247;48.586;13.492;2023-03-14T07:19:54;1.05;;;0.50;;
36211;SDS011;22247;48.586;13.492;2023-03-14T07:22:20;2.45;;;0.50;;
36211;SDS011;22247;48.586;13.492;2023-03-14T07:24:46;1.08;;;0.40;;
36211;SDS011;22247;48.586;13.492;2023-03-14T07:27:12;1.08;;;0.68;;
36211;SDS011;22247;48.586;13.492;2023-03-14T07:29:38;0.50;;;0.20;;
36211;SDS011;22247;48.586;13.492;2023-03-14T07:32:04;1.85;;;0.10;;
36211;SDS011;22247;48.586;13.492;2023-03-14T07:34:30;0.38;;;0.20;;
36211;SDS011;22247;48.586;13.492;2023-03-14T07:36:56;2.17;;;0.10;;
36211;SDS011;22247;48.586;13.492;2023-03-14T07:39:22;1.45;;;0.20;;
36211;SDS011;22247;48.586;13.492;2023-03-14T07:41:48;0.85;;;0.10;;
36211;SDS011;22247;48.586;13.492;2023-03-14T07:44:14;2.38;;;0.10;;
36211;SDS011;22247;48.586;13.492;2023-03-14T07:46:42;0.35;;;0.10;;
36211;SDS011;22247;48.586;13.492;2023-03-14T07:49:08;0.98;;;0.10;;
36211;SDS011;22247;48.586;13.492;2023-03-14T07:51:34;0.20;;;0.10;;
36211;SDS011;22247;48.586;13.492;2023-03-14T07:54:02;0.13;;;0.10;;
36211;SDS011;22247;48.586;13.492;2023-03-14T07:56:30;0.20;;;0.10;;
36211;SDS011;22247;48.586;13.492;2023-03-14T07:58:56;0.43;;;0.20;;
36211;SDS011;22247;48.586;13.492;2023-03-14T08:01:22;0.15;;;0.00;;
36211;SDS011;22247;48.586;13.492;2023-03-14T08:03:48;0.10;;;0.00;;
36211;SDS011;22247;48.586;13.492;2023-03-14T08:06:14;1.27;;;0.00;;
36211;SDS011;22247;48.586;13.492;2023-03-14T08:08:40;0.20;;;0.10;;
36211;SDS011;22247;48.586;13.492;2023-03-14T08:11:08;0.55;;;0.10;;
36211;SDS011;22247;48.586;13.492;2023-03-14T08:13:37;1.17;;;0.10;;
36211;SDS011;22247;48.586;13.492;2023-03-14T08:16:03;0.30;;;0.10;;
36211;SDS011;22247;48.586;13.492;2023-03-14T08:18:29;0.30;;;0.10;;
36211;SDS011;22247;48.586;13.492;2023-03-14T08:20:58;0.40;;;0.10;;
36211;SDS011;22247;48.586;13.492;2023-03-14T08:23:23;0.40;;;0.10;;
36211;SDS011;22247;48.586;13.492;2023-03-14T08:25:52;0.47;;;0.10;;
36211;SDS011;22247;48.586;13.492;2023-03-14T08:28:18;0.50;;;0.20;;
36211;SDS011;22247;48.586;13.492;2023-03-14T08:30:44;1.13;;;0.10;;
36211;SDS011;22247;48.586;13.492;2023-03-14T08:33:10;0.38;;;0.10;;
36211;SDS011;22247;48.586;13.492;2023-03-14T08:35:38;0.60;;;0.20;;
36211;SDS011;22247;48.586;13.492;2023-03-14T08:38:04;1.05;;;0.20;;
36211;SDS011;22247;48.586;13.492;2023-03-14T08:40:30;0.32;;;0.08;;
36211;SDS011;22247;48.586;13.492;2023-03-14T08:42:56;1.52;;;0.10;;
36211;SDS011;22247;48.586;13.492;2023-03-14T08:45:22;5.25;;;0.10;;
36211;SDS011;22247;48.586;13.492;2023-03-14T08:47:50;0.35;;;0.10;;
36211;SDS011;22247;48.586;13.492;2023-03-14T08:50:16;0.50;;;0.30;;
36211;SDS011;22247;48.586;13.492;2023-03-14T08:52:41;1.65;;;0.10;;
36211;SDS011;22247;48.586;13.492;2023-03-14T08:55:08;0.40;;;0.05;;
36211;SDS011;22247;48.586;13.492;2023-03-14T08:57:36;0.25;;;0.05;;
36211;SDS011;22247;48.586;13.492;2023-03-14T09:00:04;2.55;;;0.10;;
36211;SDS011;22247;48.586;13.492;2023-03-14T09:02:35;0.30;;;0.10;;
36211;SDS011;22247;48.586;13.492;2023-03-14T09:05:01;0.20;;;0.03;;
36211;SDS011;22247;48.586;13.492;2023-03-14T09:07:27;2.78;;;0.10;;
36211;SDS011;22247;48.586;13.492;2023-03-14T09:09:55;1.77;;;0.10;;
36211;SDS011;22247;48.586;13.492;2023-03-14T09:12:21;1.05;;;0.45;;
36211;SDS011;22247;48.586;13.492;2023-03-14T09:14:50;0.50;;;0.10;;
36211;SDS011;22247;48.586;13.492;2023-03-14T09:17:18;0.32;;;0.10;;
36211;SDS011;22247;48.586;13.492;2023-03-14T09:19:44;0.22;;;0.03;;
36211;SDS011;22247;48.586;13.492;2023-03-14T09:22:12;0.20;;;0.00;;
36211;SDS011;22247;48.586;13.492;2023-03-14T09:24:38;1.65;;;0.10;;
36211;SDS011;22247;48.586;13.492;2023-03-14T09:27:05;0.30;;;0.10;;
36211;SDS011;22247;48.586;13.492;2023-03-14T09:29:32;2.15;;;0.20;;
36211;SDS011;22247;48.586;13.492;2023-03-14T09:31:58;0.30;;;0.10;;
36211;SDS011;22247;48.586;13.492;2023-03-14T09:34:24;0.15;;;0.08;;
36211;SDS011;22247;48.586;13.492;2023-03-14T09:36:50;1.10;;;0.15;;
36211;SDS011;22247;48.586;13.492;2023-03-14T09:39:16;1.70;;;0.10;;
36211;SDS011;22247;48.586;13.492;2023-03-14T09:41:49;0.17;;;0.10;;
36211;SDS011;22247;48.586;13.492;2023-03-14T09:44:24;0.22;;;0.10;;
36211;SDS011;22247;48.586;13.492;2023-03-14T09:46:54;0.60;;;0.10;;
36211;SDS011;22247;48.586;13.492;2023-03-14T09:49:30;0.30;;;0.10;;
36211;SDS011;22247;48.586;13.492;2023-03-14T09:52:02;1.33;;;0.08;;
36211;SDS011;22247;48.586;13.492;2023-03-14T09:54:41;3.53;;;0.10;;
36211;SDS011;22247;48.586;13.492;2023-03-14T09:57:32;0.20;;;0.10;;
36211;SDS011;22247;48.586;13.492;2023-03-14T10:00:01;0.60;;;0.10;;
36211;SDS011;22247;48.586;13.492;2023-03-14T10:02:39;0.98;;;0.10;;
36211;SDS011;22247;48.586;13.492;2023-03-14T10:05:18;0.20;;;0.10;;
36211;SDS011;22247;48.586;13.492;2023-03-14T10:07:46;0.70;;;0.10;;
36211;SDS011;22247;48.586;13.492;2023-03-14T10:12:46;0.38;;;0.10;;
36211;SDS011;22247;48.586;13.492;2023-03-14T10:15:24;2.30;;;0.30;;
36211;SDS011;22247;48.586;13.492;2023-03-14T10:18:01;2.03;;;0.30;;
36211;SDS011;22247;48.586;13.492;2023-03-14T10:23:22;1.40;;;0.17;;
36211;SDS011;22247;48.586;13.492;2023-03-14T10:26:06;0.20;;;0.10;;
36211;SDS011;22247;48.586;13.492;2023-03-14T10:28:33;0.50;;;0.20;;
36211;SDS011;22247;48.586;13.492;2023-03-14T10:31:10;0.15;;;0.00;;
36211;SDS011;22247;48.586;13.492;2023-03-14T10:33:41;1.25;;;0.10;;
36211;SDS011;22247;48.586;13.492;2023-03-14T10:36:19;2.55;;;0.20;;
36211;SDS011;22247;48.586;13.492;2023-03-14T10:38:47;0.50;;;0.10;;
36211;SDS011;22247;48.586;13.492;2023-03-14T10:41:18;0.40;;;0.10;;
36211;SDS011;22247;48.586;13.492;2023-03-14T10:43:55;0.68;;;0.03;;
36211;SDS011;22247;48.586;13.492;2023-03-14T10:46:23;0.93;;;0.08;;
36211;SDS011;22247;48.586;13.492;2023-03-14T10:48:50;0.10;;;0.00;;
36211;SDS011;22247;48.586;13.492;2023-03-14T10:51:28;1.45;;;0.00;;
36211;SDS011;22247;48.586;13.492;2023-03-14T10:53:55;0.30;;;0.10;;
36211;SDS011;22247;48.586;13.492;2023-03-14T10:56:44;0.93;;;0.40;;
36211;SDS011;22247;48.586;13.492;2023-03-14T10:59:14;1.15;;;0.00;;
36211;SDS011;22247;48.586;13.492;2023-03-14T11:04:15;0.57;;;0.10;;
36211;SDS011;22247;48.586;13.492;2023-03-14T11:07:16;1.05;;;0.10;;
36211;SDS011;22247;48.586;13.492;2023-03-14T11:10:07;3.33;;;0.77;;
36211;SDS011;22247;48.586;13.492;2023-03-14T11:20:55;0.35;;;0.10;;
36211;SDS011;22247;48.586;13.492;2023-03-14T11:28:49;1.17;;;0.00;;
36211;SDS011;22247;48.586;13.492;2023-03-14T11:31:28;3.55;;;0.10;;
36211;SDS011;22247;48.586;13.492;2023-03-14T11:36:33;0.22;;;0.10;;
36211;SDS011;22247;48.586;13.492;2023-03-14T11:39:07;1.75;;;0.00;;
36211;SDS011;22247;48.586;13.492;2023-03-14T11:41:43;0.43;;;0.10;;
36211;SDS011;22247;48.586;13.492;2023-03-14T11:44:16;0.10;;;0.00;;
36211;SDS011;22247;48.586;13.492;2023-03-14T11:46:51;0.22;;;0.00;;
36211;SDS011;22247;48.586;13.492;2023-03-14T11:49:34;0.20;;;0.00;;
36211;SDS011;22247;48.586;13.492;2023-03-14T11:52:11;0.28;;;0.10;;
36211;SDS011;22247;48.586;13.492;2023-03-14T11:55:13;0.40;;;0.10;;
36211;SDS011;22247;48.586;13.492;2023-03-14T11:57:53;0.20;;;0.10;;
36211;SDS011;22247;48.586;13.492;2023-03-14T12:00:27;0.13;;;0.03;;
36211;SDS011;22247;48.586;13.492;2023-03-14T12:05:53;0.73;;;0.13;;
36211;SDS011;22247;48.586;13.492;2023-03-14T12:08:38;1.38;;;0.00;;
36211;SDS011;22247;48.586;13.492;2023-03-14T12:11:08;1.15;;;0.00;;
36211;SDS011;22247;48.586;13.492;2023-03-14T12:13:54;0.30;;;0.10;;
36211;SDS011;22247;48.586;13.492;2023-03-14T12:18:51;0.10;;;0.00;;
36211;SDS011;22247;48.586;13.492;2023-03-14T12:21:18;0.25;;;0.20;;
36211;SDS011;22247;48.586;13.492;2023-03-14T12:28:37;0.05;;;0.00;;
36211;SDS011;22247;48.586;13.492;2023-03-14T12:34:01;1.05;;;0.00;;
36211;SDS011;22247;48.586;13.492;2023-03-14T12:42:07;0.20;;;0.10;;
36211;SDS011;22247;48.586;13.492;2023-03-14T12:49:51;0.10;;;0.00;;
36211;SDS011;22247;48.586;13.492;2023-03-14T12:52:27;0.98;;;0.00;;
36211;SDS011;22247;48.586;13.492;2023-03-14T12:55:10;0.10;;;0.00;;
36211;SDS011;22247;48.586;13.492;2023-03-14T12:57:58;0.00;;;0.00;;
36211;SDS011;22247;48.586;13.492;2023-03-14T13:00:38;0.28;;;0.00;;
36211;SDS011;22247;48.586;13.492;2023-03-14T13:03:15;0.22;;;0.05;;
36211;SDS011;22247;48.586;13.492;2023-03-14T13:05:59;0.60;;;0.00;;
36211;SDS011;22247;48.586;13.492;2023-03-14T13:08:34;1.20;;;0.15;;
36211;SDS011;22247;48.586;13.492;2023-03-14T13:11:02;0.10;;;0.00;;
36211;SDS011;22247;48.586;13.492;2023-03-14T13:13:34;0.17;;;0.00;;
36211;SDS011;22247;48.586;13.492;2023-03-14T13:16:00;0.17;;;0.00;;
36211;SDS011;22247;48.586;13.492;2023-03-14T13:21:01;2.38;;;0.10;;
36211;SDS011;22247;48.586;13.492;2023-03-14T13:23:37;1.30;;;0.00;;
36211;SDS011;22247;48.586;13.492;2023-03-14T13:26:05;2.05;;;0.00;;
36211;SDS011;22247;48.586;13.492;2023-03-14T13:28:36;1.45;;;0.00;;
36211;SDS011;22247;48.586;13.492;2023-03-14T13:31:02;2.05;;;0.00;;
36211;SDS011;22247;48.586;13.492;2023-03-14T13:33:29;0.00;;;0.00;;
36211;SDS011;22247;48.586;13.492;2023-03-14T13:38:27;0.28;;;0.00;;
36211;SDS011;22247;48.586;13.492;2023-03-14T13:40:58;0.15;;;0.00;;
36211;SDS011;22247;48.586;13.492;2023-03-14T13:43:33;0.00;;;0.00;;
36211;SDS011;22247;48.586;13.492;2023-03-14T13:48:49;0.17;;;0.00;;
36211;SDS011;22247;48.586;13.492;2023-03-14T13:51:23;0.25;;;0.00;;
36211;SDS011;22247;48.586;13.492;2023-03-14T13:53:52;0.00;;;0.00;;
36211;SDS011;22247;48.586;13.492;2023-03-14T13:56:23;0.10;;;0.00;;
36211;SDS011;22247;48.586;13.492;2023-03-14T13:58:51;0.00;;;0.00;;
36211;SDS011;22247;48.586;13.492;2023-03-14T14:01:23;0.17;;;0.00;;
36211;SDS011;22247;48.586;13.492;2023-03-14T14:03:56;0.60;;;0.00;;
36211;SDS011;22247;48.586;13.492;2023-03-14T14:08:49;0.63;;;0.00;;
36211;SDS011;22247;48.586;13.492;2023-03-14T14:11:19;0.40;;;0.10;;
36211;SDS011;22247;48.586;13.492;2023-03-14T14:13:53;0.10;;;0.00;;
36211;SDS011;22247;48.586;13.492;2023-03-14T14:16:20;0.00;;;0.00;;
36211;SDS011;22247;48.586;13.492;2023-03-14T14:18:50;0.00;;;0.00;;
36211;SDS011;22247;48.586;13.492;2023-03-14T14:21:20;0.10;;;0.00;;
36211;SDS011;22247;48.586;13.492;2023-03-14T14:23:49;0.22;;;0.00;;
36211;SDS011;22247;48.586;13.492;2023-03-14T14:26:18;0.10;;;0.00;;
36211;SDS011;22247;48.586;13.492;2023-03-14T14:28:45;0.28;;;0.00;;
36211;SDS011;22247;48.586;13.492;2023-03-14T14:34:01;0.00;;;0.00;;
36211;SDS011;22247;48.586;13.492;2023-03-14T14:36:27;0.10;;;0.00;;
36211;SDS011;22247;48.586;13.492;2023-03-14T14:39:02;0.35;;;0.00;;
36211;SDS011;22247;48.586;13.492;2023-03-14T14:41:33;0.00;;;0.00;;
36211;SDS011;22247;48.586;13.492;2023-03-14T14:44:04;0.10;;;0.00;;
36211;SDS011;22247;48.586;13.492;2023-03-14T14:46:33;0.10;;;0.00;;
36211;SDS011;22247;48.586;13.492;2023-03-14T14:49:19;0.20;;;0.00;;
36211;SDS011;22247;48.586;13.492;2023-03-14T14:51:49;0.00;;;0.00;;
36211;SDS011;22247;48.586;13.492;2023-03-14T14:54:19;0.00;;;0.00;;
36211;SDS011;22247;48.586;13.492;2023-03-14T14:57:01;0.10;;;0.00;;
36211;SDS011;22247;48.586;13.492;2023-03-14T14:59:30;0.10;;;0.00;;
36211;SDS011;22247;48.586;13.492;2023-03-14T15:02:00;1.40;;;0.00;;
36211;SDS011;22247;48.586;13.492;2023-03-14T15:04:30;0.35;;;0.00;;
36211;SDS011;22247;48.586;13.492;2023-03-14T15:06:59;0.30;;;0.00;;
36211;SDS011;22247;48.586;13.492;2023-03-14T15:09:25;0.40;;;0.00;;
36211;SDS011;22247;48.586;13.492;2023-03-14T15:11:51;0.00;;;0.00;;
36211;SDS011;22247;48.586;13.492;2023-03-14T15:14:19;0.00;;;0.00;;
36211;SDS011;22247;48.586;13.492;2023-03-14T15:16:45;0.00;;;0.00;;
36211;SDS011;22247;48.586;13.492;2023-03-14T15:19:21;1.30;;;0.00;;
36211;SDS011;22247;48.586;13.492;2023-03-14T15:21:54;1.65;;;0.10;;
36211;SDS011;22247;48.586;13.492;2023-03-14T15:24:20;0.15;;;0.00;;
36211;SDS011;22247;48.586;13.492;2023-03-14T15:26:46;0.10;;;0.00;;
36211;SDS011;22247;48.586;13.492;2023-03-14T15:29:12;0.00;;;0.00;;
36211;SDS011;22247;48.586;13.492;2023-03-14T15:31:38;0.05;;;0.00;;
36211;SDS011;22247;48.586;13.492;2023-03-14T15:34:04;0.20;;;0.03;;
36211;SDS011;22247;48.586;13.492;2023-03-14T15:36:31;0.08;;;0.00;;
36211;SDS011;22247;48.586;13.492;2023-03-14T15:38:58;1.88;;;0.00;;
36211;SDS011;22247;48.586;13.492;2023-03-14T15:41:25;0.10;;;0.00;;
36211;SDS011;22247;48.586;13.492;2023-03-14T15:43:54;7.97;;;0.00;;
36211;SDS011;22247;48.586;13.492;2023-03-14T15:46:20;0.57;;;0.10;;
36211;SDS011;22247;48.586;13.492;2023-03-14T15:48:46;0.40;;;0.00;;
36211;SDS011;22247;48.586;13.492;2023-03-14T15:51:15;0.00;;;0.00;;
36211;SDS011;22247;48.586;13.492;2023-03-14T15:53:44;0.10;;;0.00;;
36211;SDS011;22247;48.586;13.492;2023-03-14T15:56:11;0.20;;;0.00;;
36211;SDS011;22247;48.586;13.492;2023-03-14T15:58:38;0.00;;;0.00;;
36211;SDS011;22247;48.586;13.492;2023-03-14T16:01:05;0.20;;;0.00;;